KEGI/EGI METAR and TAF weather

Enter ICAO airport designator
Station Type Date Time Source
KEGI METAR 2022/11/30 11:01 UTC NOAA

KEGI 301101Z AUTO 21012KT 10SM BKN010 23/22 A2996 RMK AO2 SLP145 $


Station Type Date Time Source
KEGI Decoded METAR 2022/11/30 11:01 UTC NOAA

Duke Field / Eglin Auxiliary, FL, United States (KEGI) 30-39N 086-31W
Nov 30, 2022 - 06:01 AM EST / 2022.11.30 1101 UTC
Wind: from the SSW (210 degrees) at 14 MPH (12 KT):0
Visibility: 10 mile(s):0
Sky conditions: mostly cloudy
Temperature: 73 F (23 C)
Dew Point: 71 F (22 C)
Relative Humidity: 94%
Pressure (altimeter): 29.96 in. Hg (1014 hPa)
ob: KEGI 301101Z AUTO 21012KT 10SM BKN010 23/22 A2996 RMK AO2 SLP145
cycle: 11

Station Type Date Time Source
KEGI TAF 2022/11/30 10:12 UTC NOAA

TAF KEGI 301000Z 3010/0116 20012KT 9999 BKN005 QNH2994INS
BECMG 3011/3012 21012G20KT 6000 -SHRA VCTS SCT005 BKN015CB OVC020 WS020/23044KT QNH2996INS
TEMPO 3012/3017 VRB25G35KT 1600 TSRA BKN005CB OVC010
BECMG 3016/3017 34012G22KT 9999 NSW SCT015 BKN050 BKN250 QNH3008INS
BECMG 3020/3021 01012G18KT 9999 SKC QNH3014INS
BECMG 0105/0106 02010KT 9999 SKC QNH3030INS
BECMG 0115/0116 05010G15KT 9999 SKC QNH3038INS TX23/3010Z TN06/0108Z LAST NO
AMDS AFT 3010 NEXT 3013

Example: see airport list